createdAt,value
2023-01-05T00:06:53.943Z,100955.31
2023-01-05T00:17:16.078Z,100958.16
2023-01-05T00:27:19.153Z,100953.03
2023-01-05T00:37:23.771Z,100961.75
2023-01-05T00:47:26.919Z,100975.25
2023-01-05T00:57:31.344Z,100963.94
2023-01-05T01:07:35.020Z,100965.13
2023-01-05T01:17:42.071Z,100959.06
2023-01-05T01:27:45.452Z,100974.59
2023-01-05T01:37:49.698Z,100965.06
2023-01-05T01:47:58.054Z,100983.94
2023-01-05T01:58:07.488Z,100979.81
2023-01-05T02:08:13.318Z,100973.75
2023-01-05T02:18:33.743Z,100982.88
2023-01-05T02:28:55.299Z,100980.59
2023-01-05T02:39:06.104Z,100977.91
2023-01-05T02:49:09.853Z,100992.41
2023-01-05T02:59:20.766Z,101005.63
2023-01-05T03:09:27.352Z,101012.53
2023-01-05T03:19:39.954Z,101008.16
2023-01-05T03:30:03.352Z,101006.19
2023-01-05T03:40:16.662Z,101015.72
2023-01-05T03:50:20.559Z,101023.78
2023-01-05T04:00:25.569Z,101019.28
2023-01-05T04:10:36.891Z,101028.66
2023-01-05T04:20:42.255Z,101028.84
2023-01-05T04:30:45.639Z,101017.44
2023-01-05T04:40:50.645Z,101028.00
2023-01-05T04:50:56.257Z,101024.63
2023-01-05T05:01:07.168Z,101023.03
2023-01-05T05:11:13.088Z,101035.06
2023-01-05T05:21:17.530Z,101014.44
2023-01-05T05:31:20.675Z,101030.50
2023-01-05T05:41:25.575Z,101042.50
2023-01-05T05:51:29.014Z,101046.06
2023-01-05T06:01:33.379Z,101054.63
2023-01-05T06:11:37.190Z,101072.84
2023-01-05T06:21:41.449Z,101076.31
2023-01-05T06:31:44.482Z,101095.28
2023-01-05T06:41:48.967Z,101099.59
2023-01-05T06:51:52.155Z,101109.34
2023-01-05T07:01:56.802Z,101117.91
2023-01-05T07:11:59.777Z,101138.19
2023-01-05T07:22:04.274Z,101137.38
2023-01-05T07:32:07.427Z,101150.56
2023-01-05T07:42:13.322Z,101172.16
2023-01-05T07:52:18.216Z,101168.63
2023-01-05T08:02:22.773Z,101191.09
2023-01-05T08:12:26.230Z,101206.63
2023-01-05T08:22:30.494Z,101215.31
2023-01-05T08:32:34.101Z,101218.50
2023-01-05T08:42:38.407Z,101217.59
2023-01-05T08:52:42.314Z,101223.47
2023-01-05T09:02:46.965Z,101240.81
2023-01-05T09:12:50.085Z,101244.91
2023-01-05T09:22:55.309Z,101249.16
2023-01-05T09:32:58.281Z,101249.16
2023-01-05T09:43:02.936Z,101276.47
2023-01-05T09:53:08.649Z,101286.81
2023-01-05T10:03:53.527Z,101302.28
2023-01-05T10:13:52.817Z,101308.13
2023-01-05T10:24:10.587Z,101304.56
2023-01-05T10:34:22.592Z,101308.66
2023-01-05T10:44:50.922Z,101322.28
2023-01-05T10:54:58.880Z,101330.06
2023-01-05T11:05:07.023Z,101340.47
2023-01-05T11:15:15.266Z,101332.72
2023-01-05T11:25:28.149Z,101338.97
2023-01-05T11:35:33.574Z,101332.78
2023-01-05T11:45:42.468Z,101332.88
2023-01-05T11:55:45.499Z,101342.16
2023-01-05T12:05:52.735Z,101334.47
2023-01-05T12:16:10.745Z,101336.31
2023-01-05T12:26:27.208Z,101327.16
2023-01-05T12:36:44.159Z,101337.59
2023-01-05T12:47:04.163Z,101339.75
2023-01-05T12:57:11.574Z,101344.25
2023-01-05T13:07:22.170Z,101340.16
2023-01-05T13:17:30.126Z,101333.91
2023-01-05T13:27:34.695Z,101328.16
2023-01-05T13:38:03.161Z,101330.34
2023-01-05T13:48:33.878Z,101340.81
2023-01-05T13:58:49.284Z,101345.22
2023-01-05T14:08:58.289Z,101339.22
2023-01-05T14:19:14.065Z,101337.47
2023-01-05T14:30:10.214Z,101341.09
2023-01-05T14:40:26.071Z,101348.69
2023-01-05T14:50:34.244Z,101350.53
2023-01-05T15:00:44.990Z,101361.44
2023-01-05T15:11:19.337Z,101365.88
2023-01-05T15:21:45.351Z,101368.50
2023-01-05T15:31:54.705Z,101353.13
2023-01-05T15:42:00.721Z,101351.34
2023-01-05T15:52:05.738Z,101366.44
2023-01-05T16:02:18.077Z,101370.28
2023-01-05T16:12:25.869Z,101373.72
2023-01-05T16:22:33.979Z,101363.69
2023-01-05T16:32:41.855Z,101364.31
2023-01-05T16:42:50.550Z,101356.63
2023-01-05T16:52:57.594Z,101346.50
2023-01-05T17:03:01.504Z,101346.50
2023-01-05T17:13:09.087Z,101338.97
2023-01-05T17:23:16.112Z,101347.50
2023-01-05T17:33:21.162Z,101331.31
2023-01-05T17:43:24.145Z,101318.53
2023-01-05T17:53:28.420Z,101315.03
2023-01-05T18:03:31.362Z,101319.16
2023-01-05T18:13:36.143Z,101306.19
2023-01-05T18:23:39.909Z,101301.00
2023-01-05T18:33:44.302Z,101296.59
2023-01-05T18:43:47.267Z,101289.81
2023-01-05T18:53:51.705Z,101287.34
2023-01-05T19:03:55.411Z,101287.22
2023-01-05T19:14:02.086Z,101280.47
2023-01-05T19:24:06.867Z,101285.59
2023-01-05T19:34:12.921Z,101288.13
2023-01-05T19:44:17.915Z,101284.69
2023-01-05T19:54:24.046Z,101280.50
2023-01-05T20:04:27.383Z,101268.59
2023-01-05T20:14:34.219Z,101260.34
2023-01-05T20:24:37.706Z,101267.47
2023-01-05T20:34:44.122Z,101274.41
2023-01-05T20:44:49.982Z,101254.00
2023-01-05T20:54:56.114Z,101252.97
2023-01-05T21:04:59.131Z,101261.41
2023-01-05T21:15:03.373Z,101250.16
2023-01-05T21:25:07.054Z,101244.94
2023-01-05T21:35:11.889Z,101252.13
2023-01-05T21:45:15.392Z,101234.97
2023-01-05T21:55:37.335Z,101235.91
2023-01-05T22:05:40.752Z,101225.47
2023-01-05T22:15:45.831Z,101228.09
2023-01-05T22:25:58.120Z,101210.09
2023-01-05T22:36:03.442Z,101224.59
2023-01-05T22:46:08.853Z,101225.53
2023-01-05T22:56:15.877Z,101220.88
2023-01-05T23:06:20.969Z,101217.75
2023-01-05T23:16:26.302Z,101211.75
2023-01-05T23:26:30.580Z,101215.09
2023-01-05T23:36:34.855Z,101204.78
2023-01-05T23:46:37.798Z,101192.00
2023-01-05T23:56:42.312Z,101186.78
